createdAt,value
2022-08-30T00:01:05.378Z,99042.44
2022-08-30T00:03:41.183Z,99042.94
2022-08-30T00:06:10.035Z,99041.75
2022-08-30T00:08:38.443Z,99040.47
2022-08-30T00:11:09.973Z,99049.38
2022-08-30T00:13:38.714Z,99040.91
2022-08-30T00:16:07.065Z,99051.63
2022-08-30T00:18:35.490Z,99049.06
2022-08-30T00:21:05.052Z,99047.34
2022-08-30T00:23:32.595Z,99049.22
2022-08-30T00:25:59.936Z,99052.03
2022-08-30T00:28:27.054Z,99048.78
2022-08-30T00:30:54.230Z,99053.53
2022-08-30T00:33:21.297Z,99057.16
2022-08-30T00:35:48.352Z,99051.13
2022-08-30T00:38:15.456Z,99052.97
2022-08-30T00:40:45.021Z,99053.91
2022-08-30T00:43:19.314Z,99055.06
2022-08-30T00:45:47.263Z,99056.94
2022-08-30T00:48:14.480Z,99056.16
2022-08-30T00:50:48.444Z,99058.94
2022-08-30T00:53:24.820Z,99055.44
2022-08-30T00:55:54.018Z,99059.09
2022-08-30T00:58:22.934Z,99064.00
2022-08-30T01:00:53.370Z,99060.66
2022-08-30T01:03:20.392Z,99057.22
2022-08-30T01:05:49.796Z,99050.13
2022-08-30T01:08:16.715Z,99057.31
2022-08-30T01:10:44.652Z,99054.88
2022-08-30T01:13:14.010Z,99063.75
2022-08-30T01:15:42.888Z,99058.69
2022-08-30T01:18:11.605Z,99062.41
2022-08-30T01:21:10.289Z,99061.72
2022-08-30T01:23:40.502Z,99054.88
2022-08-30T01:26:08.001Z,99055.88
2022-08-30T01:28:35.493Z,99056.72
2022-08-30T01:31:02.626Z,99061.06
2022-08-30T01:33:30.051Z,99055.72
2022-08-30T01:36:02.801Z,99058.59
2022-08-30T01:38:40.618Z,99059.44
2022-08-30T01:41:18.585Z,99057.50
2022-08-30T01:43:45.795Z,99054.94
2022-08-30T01:46:15.074Z,99059.28
2022-08-30T01:48:50.349Z,99060.94
2022-08-30T01:51:23.023Z,99048.41
2022-08-30T01:53:50.156Z,99054.41
2022-08-30T01:56:17.939Z,99057.97
2022-08-30T01:58:45.571Z,99054.25
2022-08-30T02:01:15.209Z,99048.97
2022-08-30T02:03:44.442Z,99053.41
2022-08-30T02:06:15.091Z,99051.59
2022-08-30T02:08:42.749Z,99053.09
2022-08-30T02:11:10.980Z,99047.50
2022-08-30T02:13:40.150Z,99046.34
2022-08-30T02:16:09.017Z,99046.97
2022-08-30T02:18:38.633Z,99045.81
2022-08-30T02:21:06.984Z,99042.00
2022-08-30T02:23:34.303Z,99046.13
2022-08-30T02:26:01.535Z,99039.91
2022-08-30T02:28:29.260Z,99046.91
2022-08-30T02:30:56.203Z,99040.59
2022-08-30T02:33:23.512Z,99043.38
2022-08-30T02:35:50.729Z,99040.97
2022-08-30T02:38:19.945Z,99044.88
2022-08-30T02:40:47.126Z,99043.53
2022-08-30T02:43:14.725Z,99043.72
2022-08-30T02:45:41.828Z,99037.81
2022-08-30T02:48:09.772Z,99044.84
2022-08-30T02:50:45.934Z,99043.22
2022-08-30T02:53:16.200Z,99041.47
2022-08-30T02:55:44.566Z,99040.75
2022-08-30T02:58:11.658Z,99034.50
2022-08-30T03:00:39.782Z,99038.03
2022-08-30T03:03:07.656Z,99038.81
2022-08-30T03:05:34.891Z,99037.25
2022-08-30T03:08:05.074Z,99045.25
2022-08-30T03:10:32.292Z,99045.41
2022-08-30T03:12:59.193Z,99052.47
2022-08-30T03:15:27.184Z,99045.47
2022-08-30T03:17:55.469Z,99045.53
2022-08-30T03:20:23.532Z,99047.34
2022-08-30T03:22:50.906Z,99042.66
2022-08-30T03:25:18.310Z,99049.69
2022-08-30T03:27:45.144Z,99052.22
2022-08-30T03:30:13.114Z,99048.75
2022-08-30T03:32:41.451Z,99056.38
2022-08-30T03:35:10.650Z,99050.78
2022-08-30T03:37:37.629Z,99055.84
2022-08-30T03:40:07.620Z,99046.28
2022-08-30T03:42:35.716Z,99065.16
2022-08-30T03:45:04.883Z,99059.06
2022-08-30T03:47:31.882Z,99055.03
2022-08-30T03:49:58.784Z,99069.47
2022-08-30T03:52:27.292Z,99065.50
2022-08-30T03:54:54.319Z,99065.56
2022-08-30T03:57:24.493Z,99051.66
2022-08-30T03:59:52.089Z,99058.59
2022-08-30T04:02:19.877Z,99053.91
2022-08-30T04:04:47.033Z,99054.31
2022-08-30T04:07:13.838Z,99060.66
2022-08-30T04:09:41.915Z,99067.19
2022-08-30T04:12:09.402Z,99060.59
2022-08-30T04:14:36.295Z,99058.69
2022-08-30T04:17:03.623Z,99066.97
2022-08-30T04:19:30.440Z,99068.13
2022-08-30T04:21:57.570Z,99063.38
2022-08-30T04:24:25.557Z,99069.28
2022-08-30T04:26:52.642Z,99068.19
2022-08-30T04:29:19.454Z,99064.56
2022-08-30T04:31:46.863Z,99074.66
2022-08-30T04:34:15.128Z,99070.97
2022-08-30T04:36:42.403Z,99078.13
2022-08-30T04:39:17.333Z,99083.78
2022-08-30T04:41:44.197Z,99086.88
2022-08-30T04:44:14.219Z,99087.13
2022-08-30T04:46:47.579Z,99087.25
2022-08-30T04:49:14.457Z,99076.91
2022-08-30T04:51:41.404Z,99091.56
2022-08-30T04:54:08.552Z,99098.00
2022-08-30T04:56:35.722Z,99094.78
2022-08-30T04:59:03.602Z,99104.75
2022-08-30T05:01:35.271Z,99109.53
2022-08-30T05:04:12.077Z,99111.44
2022-08-30T05:06:39.226Z,99102.00
2022-08-30T05:09:06.244Z,99100.22
2022-08-30T05:11:33.258Z,99107.47
2022-08-30T05:14:00.643Z,99104.22
2022-08-30T05:16:27.815Z,99096.38
2022-08-30T05:18:54.953Z,99103.31
2022-08-30T05:21:25.710Z,99111.38
2022-08-30T05:23:58.533Z,99109.44
2022-08-30T05:26:29.287Z,99099.47
2022-08-30T05:28:56.379Z,99114.16
2022-08-30T05:31:26.418Z,99118.22
2022-08-30T05:33:55.326Z,99109.72
2022-08-30T05:36:24.612Z,99119.72
2022-08-30T05:38:51.646Z,99125.16
2022-08-30T05:41:21.036Z,99120.25
2022-08-30T05:43:48.660Z,99121.06
2022-08-30T05:46:19.908Z,99119.38
2022-08-30T05:48:47.743Z,99113.75
2022-08-30T05:51:18.653Z,99113.25
2022-08-30T05:53:47.085Z,99118.56
2022-08-30T05:56:17.361Z,99113.69
2022-08-30T05:58:45.142Z,99117.97
2022-08-30T06:01:34.419Z,99118.00
2022-08-30T06:04:04.293Z,99118.06
2022-08-30T06:06:33.013Z,99121.72
2022-08-30T06:08:59.897Z,99121.25
2022-08-30T06:11:27.967Z,99123.81
2022-08-30T06:13:55.894Z,99125.34
2022-08-30T06:16:26.029Z,99120.53
2022-08-30T06:18:55.084Z,99114.91
2022-08-30T06:21:28.761Z,99114.06
2022-08-30T06:23:57.424Z,99123.78
2022-08-30T06:26:25.700Z,99117.38
2022-08-30T06:28:53.055Z,99118.19
2022-08-30T06:31:22.247Z,99120.34
2022-08-30T06:33:50.177Z,99127.06
2022-08-30T06:36:20.876Z,99122.56
2022-08-30T06:38:50.895Z,99130.78
2022-08-30T06:41:22.374Z,99123.41
2022-08-30T06:43:50.577Z,99128.47
2022-08-30T06:46:21.060Z,99135.13
2022-08-30T06:48:48.683Z,99133.41
2022-08-30T06:51:20.897Z,99133.53
2022-08-30T06:53:49.723Z,99124.94
2022-08-30T06:56:17.625Z,99122.03
2022-08-30T06:58:45.932Z,99121.50
2022-08-30T07:01:16.166Z,99131.41
2022-08-30T07:03:43.634Z,99130.47
2022-08-30T07:06:11.220Z,99134.41
2022-08-30T07:08:38.758Z,99129.63
2022-08-30T07:11:07.694Z,99136.16
2022-08-30T07:13:36.049Z,99132.63
2022-08-30T07:16:10.731Z,99132.72
2022-08-30T07:18:54.777Z,99144.16
2022-08-30T07:21:26.555Z,99133.00
2022-08-30T07:23:55.880Z,99131.06
2022-08-30T07:26:35.322Z,99131.44
2022-08-30T07:29:04.184Z,99135.97
2022-08-30T07:31:31.214Z,99129.13
2022-08-30T07:33:58.131Z,99125.44
2022-08-30T07:36:25.690Z,99128.47
2022-08-30T07:38:54.621Z,99111.22
2022-08-30T07:41:32.735Z,99109.84
2022-08-30T07:44:00.892Z,99106.81
2022-08-30T07:46:28.297Z,99114.41
2022-08-30T07:48:56.088Z,99119.22
2022-08-30T07:51:26.633Z,99102.47
2022-08-30T07:53:54.778Z,99104.16
2022-08-30T07:56:22.837Z,99102.25
2022-08-30T07:58:52.331Z,99102.50
2022-08-30T08:01:21.333Z,99111.69
2022-08-30T08:03:50.418Z,99104.19
2022-08-30T08:06:20.448Z,99104.91
2022-08-30T08:08:47.713Z,99107.22
2022-08-30T08:11:29.435Z,99105.69
2022-08-30T08:14:01.124Z,99105.63
2022-08-30T08:16:30.659Z,99101.88
2022-08-30T08:18:58.009Z,99102.41
2022-08-30T08:21:26.132Z,99102.53
2022-08-30T08:23:53.149Z,99106.44
2022-08-30T08:26:21.208Z,99097.47
2022-08-30T08:28:48.400Z,99104.19
2022-08-30T08:34:06.382Z,99103.75
2022-08-30T08:36:35.609Z,99099.16
2022-08-30T08:39:05.118Z,99090.88
2022-08-30T08:41:53.338Z,99092.50
2022-08-30T08:44:28.443Z,99099.09
2022-08-30T08:47:13.772Z,99094.19
2022-08-30T08:49:44.417Z,99102.06
2022-08-30T08:52:39.976Z,99092.47
2022-08-30T08:55:13.645Z,99099.53
2022-08-30T08:57:41.261Z,99092.88
2022-08-30T09:00:11.437Z,99090.91
2022-08-30T09:02:58.568Z,99087.72
2022-08-30T09:05:29.736Z,99095.44
2022-08-30T09:08:01.569Z,99096.50
2022-08-30T09:10:49.253Z,99089.84
2022-08-30T09:13:19.044Z,99090.09
2022-08-30T09:15:48.967Z,99085.81
2022-08-30T09:18:20.034Z,99083.91
2022-08-30T09:20:49.828Z,99080.50
2022-08-30T09:23:17.369Z,99087.06
2022-08-30T09:25:50.048Z,99090.50
2022-08-30T09:28:23.137Z,99093.53
2022-08-30T09:31:17.032Z,99091.16
2022-08-30T09:34:01.868Z,99094.88
2022-08-30T09:36:34.120Z,99100.88
2022-08-30T09:39:04.252Z,99099.72
2022-08-30T09:41:40.151Z,99109.47
2022-08-30T09:44:25.366Z,99098.47
2022-08-30T09:47:01.283Z,99091.19
2022-08-30T09:49:43.225Z,99094.13
2022-08-30T09:52:33.516Z,99095.41
2022-08-30T09:55:21.279Z,99099.09
2022-08-30T09:58:03.922Z,99091.38
2022-08-30T10:00:39.046Z,99093.13
2022-08-30T10:03:36.217Z,99088.63
2022-08-30T10:06:24.860Z,99087.75
2022-08-30T10:09:03.741Z,99088.50
2022-08-30T10:11:49.173Z,99093.81
2022-08-30T10:15:01.126Z,99083.75
2022-08-30T10:17:59.938Z,99089.03
2022-08-30T10:20:32.565Z,99092.44
2022-08-30T10:23:25.170Z,99087.25
2022-08-30T10:26:05.416Z,99078.81
2022-08-30T10:28:43.697Z,99081.59
2022-08-30T10:31:37.652Z,99086.84
2022-08-30T10:34:27.224Z,99079.81
2022-08-30T10:37:03.148Z,99080.00
2022-08-30T10:39:37.267Z,99077.94
2022-08-30T10:42:39.344Z,99073.28
2022-08-30T10:45:15.210Z,99077.91
2022-08-30T10:47:53.804Z,99079.94
2022-08-30T10:50:28.616Z,99079.88
2022-08-30T10:53:07.590Z,99080.22
2022-08-30T10:55:49.870Z,99079.13
2022-08-30T10:58:18.722Z,99080.63
2022-08-30T11:01:00.636Z,99076.38
2022-08-30T11:03:52.411Z,99070.91
2022-08-30T11:06:27.171Z,99072.53
2022-08-30T11:09:07.325Z,99065.53
2022-08-30T11:11:56.259Z,99056.13
2022-08-30T11:14:25.552Z,99052.41
2022-08-30T11:16:56.742Z,99052.09
2022-08-30T11:19:23.533Z,99047.53
2022-08-30T11:22:08.486Z,99050.00
2022-08-30T11:25:10.195Z,99045.84
2022-08-30T11:27:52.940Z,99047.69
2022-08-30T11:30:26.454Z,99046.97
2022-08-30T11:33:25.985Z,99043.94
2022-08-30T11:35:53.818Z,99053.94
2022-08-30T11:38:26.706Z,99042.53
2022-08-30T11:40:56.704Z,99041.06
2022-08-30T11:43:36.658Z,99039.38
2022-08-30T11:46:37.571Z,99035.59
2022-08-30T11:49:13.958Z,99034.59
2022-08-30T11:52:26.425Z,99030.97
2022-08-30T11:55:02.898Z,99034.44
2022-08-30T11:57:42.767Z,99025.09
2022-08-30T12:00:25.161Z,99023.88
2022-08-30T12:03:02.948Z,99017.91
2022-08-30T12:05:40.051Z,99020.94
2022-08-30T12:08:28.022Z,99012.56
2022-08-30T12:11:03.446Z,99011.63
2022-08-30T12:13:40.121Z,99008.34
2022-08-30T12:16:14.923Z,99008.72
2022-08-30T12:18:49.363Z,98999.50
2022-08-30T12:21:22.659Z,99000.41
2022-08-30T12:24:08.311Z,98993.19
2022-08-30T12:26:41.157Z,98997.34
2022-08-30T12:29:11.779Z,98994.66
2022-08-30T12:31:46.638Z,98987.13
2022-08-30T12:34:24.807Z,98994.47
2022-08-30T12:36:58.067Z,98991.91
2022-08-30T12:39:29.934Z,98990.19
2022-08-30T12:42:12.408Z,98979.06
2022-08-30T12:44:45.435Z,98976.69
2022-08-30T12:47:18.167Z,98975.34
2022-08-30T12:49:46.450Z,98960.41
2022-08-30T12:52:31.411Z,98955.03
2022-08-30T12:55:21.797Z,98962.19
2022-08-30T12:58:10.177Z,98958.94
2022-08-30T13:00:39.909Z,98961.13
2022-08-30T13:03:32.973Z,98959.34
2022-08-30T13:06:00.203Z,98966.44
2022-08-30T13:08:38.251Z,98956.84
2022-08-30T13:11:10.830Z,98953.19
2022-08-30T13:13:44.449Z,98951.13
2022-08-30T13:16:36.273Z,98956.34
2022-08-30T13:19:25.377Z,98956.72
2022-08-30T13:21:55.143Z,98948.97
2022-08-30T13:24:25.517Z,98953.75
2022-08-30T13:26:54.810Z,98945.00
2022-08-30T13:29:26.518Z,98944.84
2022-08-30T13:31:54.609Z,98944.53
2022-08-30T13:34:22.872Z,98942.13
2022-08-30T13:36:54.403Z,98938.16
2022-08-30T13:39:22.007Z,98935.88
2022-08-30T13:41:49.917Z,98926.53
2022-08-30T13:44:18.665Z,98930.84
2022-08-30T13:46:53.847Z,98931.03
2022-08-30T13:49:45.782Z,98930.59
2022-08-30T13:52:20.803Z,98934.94
2022-08-30T13:54:57.066Z,98923.22
2022-08-30T14:00:19.411Z,98914.50
2022-08-30T14:02:54.701Z,98914.50
2022-08-30T14:05:47.495Z,98914.78
2022-08-30T14:11:01.779Z,98899.00
2022-08-30T14:13:29.808Z,98894.94
2022-08-30T14:18:46.900Z,98891.41
2022-08-30T14:21:14.370Z,98895.56
2022-08-30T14:23:41.168Z,98890.16
2022-08-30T14:26:17.271Z,98897.69
2022-08-30T14:28:44.982Z,98886.72
2022-08-30T14:31:13.528Z,98892.16
2022-08-30T14:33:40.478Z,98889.94
2022-08-30T14:36:12.932Z,98881.38
2022-08-30T14:38:43.985Z,98881.81
2022-08-30T14:41:11.857Z,98876.72
2022-08-30T14:43:42.532Z,98879.81
2022-08-30T14:46:10.737Z,98880.06
2022-08-30T14:48:38.547Z,98883.84
2022-08-30T14:51:17.904Z,98878.44
2022-08-30T14:53:46.536Z,98880.69
2022-08-30T14:56:16.342Z,98885.75
2022-08-30T14:58:43.392Z,98886.97
2022-08-30T15:01:12.317Z,98892.56
2022-08-30T15:03:41.272Z,98892.13
2022-08-30T15:06:09.348Z,98890.63
2022-08-30T15:08:38.406Z,98888.44
2022-08-30T15:11:15.753Z,98888.00
2022-08-30T15:13:45.947Z,98882.31
2022-08-30T15:16:16.204Z,98882.00
2022-08-30T15:18:44.019Z,98890.03
2022-08-30T15:21:11.121Z,98886.69
2022-08-30T15:23:39.187Z,98887.63
2022-08-30T15:26:09.430Z,98886.00
2022-08-30T15:28:36.899Z,98884.25
2022-08-30T15:31:08.647Z,98882.97
2022-08-30T15:33:37.639Z,98880.94
2022-08-30T15:36:06.816Z,98881.47
2022-08-30T15:38:34.921Z,98884.84
2022-08-30T15:41:06.636Z,98883.69
2022-08-30T15:43:34.781Z,98878.47
2022-08-30T15:46:22.877Z,98879.69
2022-08-30T15:48:52.213Z,98878.81
2022-08-30T15:51:19.267Z,98874.81
2022-08-30T15:53:46.576Z,98877.16
2022-08-30T15:56:14.753Z,98873.47
2022-08-30T15:58:42.962Z,98873.31
2022-08-30T16:01:11.693Z,98867.75
2022-08-30T16:03:41.631Z,98866.59
2022-08-30T16:06:14.354Z,98865.88
2022-08-30T16:08:42.011Z,98867.56
2022-08-30T16:11:10.436Z,98869.28
2022-08-30T16:13:37.418Z,98867.75
2022-08-30T16:16:06.873Z,98865.88
2022-08-30T16:18:35.246Z,98876.69
2022-08-30T16:21:09.249Z,98867.91
2022-08-30T16:23:38.045Z,98864.69
2022-08-30T16:26:05.383Z,98865.31
2022-08-30T16:28:32.496Z,98871.31
2022-08-30T16:31:00.388Z,98864.56
2022-08-30T16:33:29.895Z,98872.56
2022-08-30T16:35:57.411Z,98870.66
2022-08-30T16:38:26.619Z,98878.00
2022-08-30T16:40:53.938Z,98888.31
2022-08-30T16:43:23.909Z,98889.81
2022-08-30T16:45:51.076Z,98894.44
2022-08-30T16:48:18.007Z,98901.75
2022-08-30T16:50:45.960Z,98904.69
2022-08-30T16:53:13.442Z,98902.09
2022-08-30T16:55:41.725Z,98907.56
2022-08-30T16:58:11.759Z,98913.41
2022-08-30T17:00:40.763Z,98910.63
2022-08-30T17:03:15.628Z,98913.78
2022-08-30T17:05:43.385Z,98914.56
2022-08-30T17:08:11.815Z,98924.91
2022-08-30T17:10:43.642Z,98925.38
2022-08-30T17:13:14.367Z,98924.16
2022-08-30T17:15:41.218Z,98927.06
2022-08-30T17:18:08.543Z,98938.56
2022-08-30T17:20:35.614Z,98928.66
2022-08-30T17:23:02.553Z,98938.06
2022-08-30T17:25:33.814Z,98949.03
2022-08-30T17:28:01.780Z,98947.22
2022-08-30T17:30:28.867Z,98952.78
2022-08-30T17:32:55.768Z,98947.72
2022-08-30T17:35:24.161Z,98943.34
2022-08-30T17:37:52.565Z,98950.84
2022-08-30T17:40:19.952Z,98952.53
2022-08-30T17:42:48.200Z,98953.41
2022-08-30T17:45:17.203Z,98958.78
2022-08-30T17:47:45.109Z,98964.88
2022-08-30T17:50:13.815Z,98971.22
2022-08-30T17:52:41.165Z,98970.22
2022-08-30T17:55:09.246Z,98969.09
2022-08-30T17:57:36.916Z,98973.72
2022-08-30T18:00:07.865Z,98979.16
2022-08-30T18:02:34.925Z,98980.72
2022-08-30T18:05:04.890Z,98981.66
2022-08-30T18:07:31.739Z,98984.31
2022-08-30T18:09:59.438Z,98994.03
2022-08-30T18:12:27.007Z,98990.47
2022-08-30T18:14:54.032Z,99001.00
2022-08-30T18:17:21.414Z,98999.25
2022-08-30T18:19:49.136Z,99006.66
2022-08-30T18:22:16.619Z,99005.84
2022-08-30T18:24:45.066Z,99008.72
2022-08-30T18:27:12.680Z,99004.97
2022-08-30T18:29:40.476Z,99006.59
2022-08-30T18:32:09.187Z,99006.53
2022-08-30T18:34:36.585Z,98998.81
2022-08-30T18:37:03.539Z,98997.16
2022-08-30T18:39:34.548Z,99003.53
2022-08-30T18:42:04.339Z,98999.97
2022-08-30T18:44:33.107Z,99001.00
2022-08-30T18:47:01.405Z,98997.97
2022-08-30T18:49:32.270Z,99000.56
2022-08-30T18:52:01.246Z,98998.94
2022-08-30T18:54:29.086Z,99004.66
2022-08-30T18:56:56.070Z,99003.66
2022-08-30T18:59:22.897Z,98999.50
2022-08-30T19:02:02.750Z,99000.56
2022-08-30T19:04:35.223Z,99003.22
2022-08-30T19:07:05.362Z,99009.47
2022-08-30T19:09:32.794Z,99009.66
2022-08-30T19:11:59.644Z,99001.81
2022-08-30T19:14:28.078Z,98998.25
2022-08-30T19:16:56.384Z,99003.34
2022-08-30T19:19:23.687Z,98998.50
2022-08-30T19:21:51.780Z,99001.44
2022-08-30T19:24:20.239Z,98994.56
2022-08-30T19:26:48.202Z,98997.25
2022-08-30T19:29:15.544Z,98997.28
2022-08-30T19:31:43.841Z,99001.69
2022-08-30T19:34:11.382Z,98997.09
2022-08-30T19:36:39.153Z,98997.19
2022-08-30T19:39:06.943Z,99005.16
2022-08-30T19:41:33.933Z,99004.09
2022-08-30T19:44:03.116Z,99001.22
2022-08-30T19:46:31.182Z,99003.31
2022-08-30T19:49:01.175Z,99001.41
2022-08-30T19:51:28.404Z,99004.47
2022-08-30T19:53:56.436Z,99007.34
2022-08-30T19:56:26.283Z,99009.34
2022-08-30T19:58:53.514Z,99010.72
2022-08-30T20:01:32.690Z,99013.78
2022-08-30T20:04:02.155Z,99008.00
2022-08-30T20:06:32.504Z,99005.56
2022-08-30T20:09:00.463Z,99013.94
2022-08-30T20:11:28.494Z,99018.78
2022-08-30T20:13:55.443Z,99017.38
2022-08-30T20:16:33.167Z,99018.94
2022-08-30T20:19:06.154Z,99015.81
2022-08-30T20:21:33.333Z,99015.31
2022-08-30T20:24:00.935Z,99021.22
2022-08-30T20:26:33.470Z,99020.00
2022-08-30T20:29:02.096Z,99016.97
2022-08-30T20:31:29.436Z,99027.34
2022-08-30T20:33:56.365Z,99030.56
2022-08-30T20:36:23.283Z,99032.53
2022-08-30T20:38:50.334Z,99033.59
2022-08-30T20:41:19.076Z,99034.91
2022-08-30T20:43:47.349Z,99028.84
2022-08-30T20:46:17.320Z,99041.34
2022-08-30T20:48:45.584Z,99041.56
2022-08-30T20:51:15.730Z,99040.97
2022-08-30T20:53:43.775Z,99046.66
2022-08-30T20:56:15.504Z,99046.94
2022-08-30T20:58:42.609Z,99051.66
2022-08-30T21:01:11.915Z,99051.84
2022-08-30T21:03:40.941Z,99055.53
2022-08-30T21:06:08.031Z,99058.47
2022-08-30T21:08:35.215Z,99055.03
2022-08-30T21:11:02.123Z,99055.59
2022-08-30T21:13:29.293Z,99060.97
2022-08-30T21:16:00.661Z,99063.81
2022-08-30T21:18:33.032Z,99068.44
2022-08-30T21:21:21.360Z,99067.75
2022-08-30T21:23:49.530Z,99061.06
2022-08-30T21:26:17.484Z,99068.44
2022-08-30T21:28:47.922Z,99058.28
2022-08-30T21:31:17.931Z,99058.53
2022-08-30T21:33:46.734Z,99067.63
2022-08-30T21:36:32.395Z,99064.47
2022-08-30T21:39:00.719Z,99067.47
2022-08-30T21:41:29.587Z,99068.75
2022-08-30T21:43:58.116Z,99081.31
2022-08-30T21:46:26.274Z,99078.00
2022-08-30T21:48:54.233Z,99082.53
2022-08-30T21:51:21.490Z,99076.53
2022-08-30T21:53:48.904Z,99072.41
2022-08-30T21:56:21.732Z,99075.31
2022-08-30T21:58:49.846Z,99070.13
2022-08-30T22:01:25.443Z,99078.41
2022-08-30T22:03:54.871Z,99071.56
2022-08-30T22:06:25.239Z,99074.44
2022-08-30T22:09:01.211Z,99068.47
2022-08-30T22:11:31.142Z,99067.78
2022-08-30T22:13:58.265Z,99067.00
2022-08-30T22:16:25.975Z,99058.38
2022-08-30T22:18:53.093Z,99054.03
2022-08-30T22:21:24.064Z,99052.53
2022-08-30T22:23:51.484Z,99050.84
2022-08-30T22:26:20.251Z,99044.78
2022-08-30T22:28:47.929Z,99043.94
2022-08-30T22:31:16.234Z,99042.13
2022-08-30T22:33:44.789Z,99045.38
2022-08-30T22:36:18.223Z,99046.06
2022-08-30T22:38:45.243Z,99033.63
2022-08-30T22:41:15.263Z,99037.88
2022-08-30T22:43:42.704Z,99037.69
2022-08-30T22:46:11.603Z,99039.34
2022-08-30T22:48:43.362Z,99028.56
2022-08-30T22:51:11.294Z,99034.47
2022-08-30T22:53:38.475Z,99031.81
2022-08-30T22:56:17.927Z,99036.09
2022-08-30T22:58:45.435Z,99033.38
2022-08-30T23:01:19.866Z,99038.66
2022-08-30T23:03:46.882Z,99041.22
2022-08-30T23:06:14.279Z,99032.34
2022-08-30T23:08:41.147Z,99038.66
2022-08-30T23:11:08.030Z,99039.63
2022-08-30T23:13:35.358Z,99037.28
2022-08-30T23:16:05.262Z,99032.06
2022-08-30T23:18:33.080Z,99035.75
2022-08-30T23:21:12.808Z,99037.81
2022-08-30T23:23:58.632Z,99033.44
2022-08-30T23:26:44.779Z,99030.00
2022-08-30T23:29:30.366Z,99023.00
2022-08-30T23:32:16.257Z,99028.31
2022-08-30T23:35:02.263Z,99019.41
2022-08-30T23:37:49.332Z,99028.06
2022-08-30T23:40:40.758Z,99030.72
2022-08-30T23:43:27.709Z,99015.59
2022-08-30T23:46:19.050Z,99016.25
2022-08-30T23:49:06.614Z,99018.56
2022-08-30T23:51:52.365Z,99013.03
2022-08-30T23:54:38.065Z,99012.69
2022-08-30T23:57:24.229Z,99017.66
